Time,TemperatureF,DewpointF,PressureIn,WindDirection,WindDirectionDegrees,WindSpeedMPH,WindSpeedGustMPH,Humidity,HourlyPrecipIn,Conditions,Clouds,dailyrainin,SoftwareType,DateUTC
2013-01-13 00:06:00,71.8,68.0,29.71,SSE,158,9.0,-999.0,86,-99.99,,,0.00,weatherlink.com 1.10,2013-01-13 06:06:00,
2013-01-13 00:22:00,71.8,68.0,29.69,South,169,13.0,-999.0,86,-99.99,,,0.00,weatherlink.com 1.10,2013-01-13 06:22:00,
2013-01-13 00:37:00,71.8,68.0,29.73,SSE,150,12.0,-999.0,86,-99.99,,,0.00,weatherlink.com 1.10,2013-01-13 06:37:00,
2013-01-13 00:51:00,72.0,68.0,29.74,SSE,160,2.0,-999.0,86,-99.99,,,0.00,weatherlink.com 1.10,2013-01-13 06:51:00,
2013-01-13 01:07:00,72.0,68.0,29.74,SSW,213,2.0,-999.0,86,-99.99,,,0.00,weatherlink.com 1.10,2013-01-13 07:07:00,
2013-01-13 01:21:00,72.1,67.0,29.76,SSW,195,3.0,-999.0,85,-99.99,,,0.00,weatherlink.com 1.10,2013-01-13 07:21:00,
2013-01-13 01:37:00,72.1,67.0,29.76,South,181,0.0,-999.0,85,-99.99,,,0.00,weatherlink.com 1.10,2013-01-13 07:37:00,
2013-01-13 01:51:00,72.1,67.0,29.78,SE,141,5.0,-999.0,85,-99.99,,,0.00,weatherlink.com 1.10,2013-01-13 07:51:00,
2013-01-13 02:07:00,72.1,67.0,29.77,South,179,2.0,-999.0,85,-99.99,,,0.00,weatherlink.com 1.10,2013-01-13 08:07:00,
2013-01-13 02:21:00,72.1,67.0,29.78,SSW,196,0.0,-999.0,85,-99.99,,,0.00,weatherlink.com 1.10,2013-01-13 08:21:00,
2013-01-13 02:37:00,72.0,67.0,29.79,SE,145,3.0,-999.0,85,-99.99,,,0.00,weatherlink.com 1.10,2013-01-13 08:37:00,
2013-01-13 02:52:00,71.8,67.0,29.79,SSE,160,3.0,-999.0,85,-99.99,,,0.00,weatherlink.com 1.10,2013-01-13 08:52:00,
2013-01-13 03:07:00,71.8,67.0,29.78,SSE,161,5.0,-999.0,85,-99.99,,,0.00,weatherlink.com 1.10,2013-01-13 09:07:00,
2013-01-13 03:22:00,71.6,67.0,29.78,South,176,3.0,-999.0,85,-99.99,,,0.00,weatherlink.com 1.10,2013-01-13 09:22:00,
2013-01-13 03:37:00,71.5,67.0,29.78,South,175,5.0,-999.0,85,-99.99,,,0.00,weatherlink.com 1.10,2013-01-13 09:37:00,
2013-01-13 03:52:00,71.5,67.0,29.77,South,182,4.0,-999.0,85,-99.99,,,0.00,weatherlink.com 1.10,2013-01-13 09:52:00,
2013-01-13 04:07:00,71.5,67.0,29.77,SSE,150,4.0,-999.0,85,-99.99,,,0.00,weatherlink.com 1.10,2013-01-13 10:07:00,
2013-01-13 04:22:00,71.5,67.0,29.75,SW,229,4.0,-999.0,85,-99.99,,,0.00,weatherlink.com 1.10,2013-01-13 10:22:00,
2013-01-13 04:37:00,71.3,67.0,29.75,SSE,150,1.0,-999.0,86,-99.99,,,0.00,weatherlink.com 1.10,2013-01-13 10:37:00,
2013-01-13 04:52:00,71.1,67.0,29.75,SSW,203,5.0,-999.0,86,-99.99,,,0.00,weatherlink.com 1.10,2013-01-13 10:52:00,
2013-01-13 05:07:00,70.9,67.0,29.76,SSE,157,2.0,-999.0,86,-99.99,,,0.00,weatherlink.com 1.10,2013-01-13 11:07:00,
2013-01-13 05:22:00,70.9,67.0,29.75,SSW,208,6.0,-999.0,86,-99.99,,,0.00,weatherlink.com 1.10,2013-01-13 11:22:00,
2013-01-13 05:37:00,70.9,67.0,29.76,South,185,6.0,-999.0,86,-99.99,,,0.00,weatherlink.com 1.10,2013-01-13 11:37:00,
2013-01-13 05:52:00,70.8,67.0,29.76,SSE,164,2.0,-999.0,87,-99.99,,,0.00,weatherlink.com 1.10,2013-01-13 11:52:00,
2013-01-13 06:07:00,70.9,67.0,29.77,SSE,167,5.0,-999.0,87,-99.99,,,0.00,weatherlink.com 1.10,2013-01-13 12:07:00,
2013-01-13 06:22:00,71.1,67.0,29.77,South,185,7.0,-999.0,86,-99.99,,,0.00,weatherlink.com 1.10,2013-01-13 12:22:00,
2013-01-13 06:37:00,71.1,67.0,29.78,SE,128,11.0,-999.0,86,-99.99,,,0.00,weatherlink.com 1.10,2013-01-13 12:37:00,
2013-01-13 06:52:00,71.1,67.0,29.78,SSE,164,5.0,-999.0,86,-99.99,,,0.00,weatherlink.com 1.10,2013-01-13 12:52:00,
2013-01-13 07:07:00,71.1,67.0,29.79,SSW,209,0.0,-999.0,87,-99.99,,,0.00,weatherlink.com 1.10,2013-01-13 13:07:00,
2013-01-13 07:22:00,65.6,57.0,29.81,NW,312,7.0,-999.0,73,-99.99,,,0.00,weatherlink.com 1.10,2013-01-13 13:22:00,
2013-01-13 07:37:00,59.5,52.0,29.83,NE,42,6.0,-999.0,75,-99.99,,,0.00,weatherlink.com 1.10,2013-01-13 13:37:00,
2013-01-13 07:52:00,55.3,49.0,29.84,WNW,294,7.0,-999.0,78,-99.99,,,0.00,weatherlink.com 1.10,2013-01-13 13:52:00,
2013-01-13 08:07:00,53.1,48.0,29.84,North,357,2.0,-999.0,83,-99.99,,,0.00,weatherlink.com 1.10,2013-01-13 14:07:00,
2013-01-13 08:22:00,52.0,48.0,29.86,NNW,335,2.0,-999.0,85,-99.99,,,0.00,weatherlink.com 1.10,2013-01-13 14:22:00,
2013-01-13 08:37:00,51.1,47.0,29.88,NNW,344,5.0,-999.0,87,-99.99,,,0.01,weatherlink.com 1.10,2013-01-13 14:37:00,
2013-01-13 08:52:00,50.5,47.0,29.89,WNW,289,13.0,-999.0,89,-99.99,,,0.03,weatherlink.com 1.10,2013-01-13 14:52:00,
2013-01-13 09:07:00,49.2,47.0,29.91,West,261,6.0,-999.0,90,-99.99,,,0.05,weatherlink.com 1.10,2013-01-13 15:07:00,
2013-01-13 09:22:00,48.3,46.0,29.93,WSW,244,2.0,-999.0,90,-99.99,,,0.05,weatherlink.com 1.10,2013-01-13 15:22:00,
2013-01-13 09:37:00,48.2,46.0,29.93,West,267,2.0,-999.0,91,-99.99,,,0.05,weatherlink.com 1.10,2013-01-13 15:37:00,
2013-01-13 09:52:00,48.0,46.0,29.94,WNW,295,2.0,-999.0,92,-99.99,,,0.05,weatherlink.com 1.10,2013-01-13 15:52:00,
2013-01-13 10:07:00,48.3,46.0,29.93,NW,315,10.0,-999.0,92,-99.99,,,0.05,weatherlink.com 1.10,2013-01-13 16:07:00,
2013-01-13 10:22:00,48.2,46.0,29.93,North,353,3.0,-999.0,92,-99.99,,,0.05,weatherlink.com 1.10,2013-01-13 16:22:00,
2013-01-13 10:37:00,48.3,46.0,29.93,WNW,301,4.0,-999.0,92,-99.99,,,0.05,weatherlink.com 1.10,2013-01-13 16:37:00,
2013-01-13 10:52:00,48.2,46.0,29.94,WNW,296,3.0,-999.0,92,-99.99,,,0.06,weatherlink.com 1.10,2013-01-13 16:52:00,
2013-01-13 11:07:00,48.0,46.0,29.93,WNW,299,5.0,-999.0,93,-99.99,,,0.08,weatherlink.com 1.10,2013-01-13 17:07:00,
2013-01-13 11:22:00,47.6,46.0,29.93,WNW,296,8.0,-999.0,93,-99.99,,,0.27,weatherlink.com 1.10,2013-01-13 17:22:00,
2013-01-13 11:37:00,47.3,46.0,29.93,WNW,296,3.0,-999.0,94,-99.99,,,0.50,weatherlink.com 1.10,2013-01-13 17:37:00,
2013-01-13 11:52:00,47.1,46.0,29.97,WNW,296,4.0,-999.0,94,-99.99,,,0.59,weatherlink.com 1.10,2013-01-13 17:52:00,
2013-01-13 12:07:00,47.3,46.0,29.92,West,275,13.0,-999.0,94,-99.99,,,0.69,weatherlink.com 1.10,2013-01-13 18:07:00,
2013-01-13 12:22:00,47.3,46.0,29.94,WNW,296,1.0,-999.0,95,-99.99,,,0.71,weatherlink.com 1.10,2013-01-13 18:22:00,
2013-01-13 12:37:00,46.8,46.0,29.95,ENE,58,2.0,-999.0,95,-99.99,,,0.82,weatherlink.com 1.10,2013-01-13 18:37:00,
2013-01-13 12:52:00,46.5,45.0,29.95,WNW,302,5.0,-999.0,95,-99.99,,,0.95,weatherlink.com 1.10,2013-01-13 18:52:00,
2013-01-13 13:07:00,46.7,45.0,29.95,NW,306,6.0,-999.0,95,-99.99,,,0.95,weatherlink.com 1.10,2013-01-13 19:07:00,
2013-01-13 13:22:00,46.8,46.0,29.95,North,352,6.0,-999.0,95,-99.99,,,0.97,weatherlink.com 1.10,2013-01-13 19:22:00,
2013-01-13 13:37:00,46.8,46.0,29.96,NW,312,3.0,-999.0,95,-99.99,,,0.97,weatherlink.com 1.10,2013-01-13 19:37:00,
2013-01-13 13:52:00,46.8,46.0,29.96,NW,326,1.0,-999.0,95,-99.99,,,0.97,weatherlink.com 1.10,2013-01-13 19:52:00,
2013-01-13 14:07:00,47.0,46.0,29.96,West,263,6.0,-999.0,95,-99.99,,,0.97,weatherlink.com 1.10,2013-01-13 20:07:00,
2013-01-13 14:22:00,47.0,46.0,29.98,NW,313,1.0,-999.0,95,-99.99,,,0.97,weatherlink.com 1.10,2013-01-13 20:22:00,
2013-01-13 14:37:00,46.8,46.0,29.98,North,11,2.0,-999.0,95,-99.99,,,0.97,weatherlink.com 1.10,2013-01-13 20:37:00,
2013-01-13 14:52:00,46.8,46.0,29.98,North,0,5.0,-999.0,95,-99.99,,,0.97,weatherlink.com 1.10,2013-01-13 20:52:00,
2013-01-13 15:07:00,46.8,46.0,30.01,NNW,328,3.0,-999.0,95,-99.99,,,0.97,weatherlink.com 1.10,2013-01-13 21:07:00,
2013-01-13 15:22:00,46.8,46.0,30.01,North,0,2.0,-999.0,95,-99.99,,,0.97,weatherlink.com 1.10,2013-01-13 21:22:00,
2013-01-13 15:37:00,46.8,46.0,30.00,NNW,333,6.0,-999.0,95,-99.99,,,0.97,weatherlink.com 1.10,2013-01-13 21:37:00,
2013-01-13 15:51:00,46.8,46.0,30.02,NNW,335,0.0,-999.0,95,-99.99,,,0.97,weatherlink.com 1.10,2013-01-13 21:51:00,
2013-01-13 16:07:00,46.5,45.0,30.03,NNE,18,7.0,-999.0,95,-99.99,,,0.97,weatherlink.com 1.10,2013-01-13 22:07:00,
2013-01-13 16:22:00,46.4,45.0,30.04,NNW,328,5.0,-999.0,95,-99.99,,,0.97,weatherlink.com 1.10,2013-01-13 22:22:00,
2013-01-13 16:37:00,46.2,45.0,30.05,NW,326,0.0,-999.0,95,-99.99,,,0.97,weatherlink.com 1.10,2013-01-13 22:37:00,
2013-01-13 16:52:00,46.1,45.0,30.05,WNW,299,2.0,-999.0,95,-99.99,,,0.97,weatherlink.com 1.10,2013-01-13 22:52:00,
2013-01-13 17:06:00,45.8,45.0,30.05,NW,326,4.0,-999.0,95,-99.99,,,0.97,weatherlink.com 1.10,2013-01-13 23:06:00,
2013-01-13 17:22:00,45.8,45.0,30.07,North,353,2.0,-999.0,95,-99.99,,,0.97,weatherlink.com 1.10,2013-01-13 23:22:00,
2013-01-13 17:37:00,45.7,44.0,30.06,North,0,4.0,-999.0,95,-99.99,,,0.97,weatherlink.com 1.10,2013-01-13 23:37:00,
2013-01-13 17:51:00,45.7,44.0,30.07,NE,41,1.0,-999.0,95,-99.99,,,0.97,weatherlink.com 1.10,2013-01-13 23:51:00,
2013-01-13 18:07:00,45.5,44.0,30.07,North,4,0.0,-999.0,95,-99.99,,,0.97,weatherlink.com 1.10,2013-01-14 00:07:00,
2013-01-13 18:22:00,45.5,44.0,30.08,North,0,2.0,-999.0,95,-99.99,,,0.97,weatherlink.com 1.10,2013-01-14 00:22:00,
2013-01-13 18:37:00,45.4,44.0,30.08,North,352,7.0,-999.0,95,-99.99,,,0.97,weatherlink.com 1.10,2013-01-14 00:37:00,
2013-01-13 18:52:00,45.2,44.0,30.08,NNE,24,2.0,-999.0,95,-99.99,,,0.97,weatherlink.com 1.10,2013-01-14 00:52:00,
2013-01-13 19:07:00,45.2,44.0,30.09,NNE,13,1.0,-999.0,95,-99.99,,,0.97,weatherlink.com 1.10,2013-01-14 01:07:00,
2013-01-13 19:22:00,44.8,44.0,30.09,North,0,6.0,-999.0,95,-99.99,,,0.97,weatherlink.com 1.10,2013-01-14 01:22:00,
2013-01-13 19:37:00,44.6,43.0,30.09,North,11,3.0,-999.0,95,-99.99,,,0.97,weatherlink.com 1.10,2013-01-14 01:37:00,
2013-01-13 19:52:00,44.8,44.0,30.10,North,0,4.0,-999.0,95,-99.99,,,0.97,weatherlink.com 1.10,2013-01-14 01:52:00,
2013-01-13 20:07:00,44.8,44.0,30.09,NNE,31,2.0,-999.0,95,-99.99,,,0.97,weatherlink.com 1.10,2013-01-14 02:07:00,
2013-01-13 20:22:00,44.6,43.0,30.10,NNE,32,2.0,-999.0,94,-99.99,,,0.97,weatherlink.com 1.10,2013-01-14 02:22:00,
2013-01-13 20:37:00,44.6,43.0,30.11,North,0,2.0,-999.0,94,-99.99,,,0.97,weatherlink.com 1.10,2013-01-14 02:37:00,
2013-01-13 20:52:00,44.5,43.0,30.11,NE,37,2.0,-999.0,94,-99.99,,,0.97,weatherlink.com 1.10,2013-01-14 02:52:00,
2013-01-13 21:07:00,44.3,43.0,30.11,North,3,3.0,-999.0,94,-99.99,,,0.97,weatherlink.com 1.10,2013-01-14 03:07:00,
2013-01-13 21:22:00,44.3,43.0,30.10,North,0,3.0,-999.0,94,-99.99,,,0.97,weatherlink.com 1.10,2013-01-14 03:22:00,
2013-01-13 21:37:00,44.2,43.0,30.10,North,11,5.0,-999.0,94,-99.99,,,0.97,weatherlink.com 1.10,2013-01-14 03:37:00,
2013-01-13 21:52:00,44.2,42.0,30.10,NNW,347,3.0,-999.0,93,-99.99,,,0.97,weatherlink.com 1.10,2013-01-14 03:52:00,
2013-01-13 22:07:00,44.1,42.0,30.10,WNW,285,1.0,-999.0,93,-99.99,,,0.97,weatherlink.com 1.10,2013-01-14 04:07:00,
2013-01-13 22:22:00,44.1,42.0,30.11,North,11,0.0,-999.0,93,-99.99,,,0.97,weatherlink.com 1.10,2013-01-14 04:22:00,
2013-01-13 22:37:00,44.1,42.0,30.12,North,0,6.0,-999.0,93,-99.99,,,0.97,weatherlink.com 1.10,2013-01-14 04:37:00,
2013-01-13 22:52:00,43.8,42.0,30.12,North,357,3.0,-999.0,93,-99.99,,,0.97,weatherlink.com 1.10,2013-01-14 04:52:00,
2013-01-13 23:07:00,43.9,42.0,30.13,NNE,14,1.0,-999.0,93,-99.99,,,0.00,weatherlink.com 1.10,2013-01-14 05:07:00,
2013-01-13 23:22:00,43.3,41.0,30.13,ENE,64,2.0,-999.0,92,-99.99,,,0.00,weatherlink.com 1.10,2013-01-14 05:22:00,
2013-01-13 23:37:00,43.1,41.0,30.14,NNE,24,3.0,-999.0,92,-99.99,,,0.00,weatherlink.com 1.10,2013-01-14 05:37:00,
2013-01-13 23:52:00,42.9,41.0,30.14,NNE,21,6.0,-999.0,91,-99.99,,,0.00,weatherlink.com 1.10,2013-01-14 05:52:00,